sensor_id;sensor_type;location;lat;lon;timestamp;pressure;altitude;pressure_sealevel;temperature;humidity
68145;BME280;55400;51.824;-0.196;2022-09-09T00:01:35;99281.09;;;16.05;78.30
68145;BME280;55400;51.824;-0.196;2022-09-09T00:04:30;99288.25;;;16.04;78.47
68145;BME280;55400;51.824;-0.196;2022-09-09T00:10:32;99290.22;;;16.02;78.76
68145;BME280;55400;51.824;-0.196;2022-09-09T00:13:27;99290.09;;;16.04;78.41
68145;BME280;55400;51.824;-0.196;2022-09-09T00:18:50;99289.94;;;16.05;78.45
68145;BME280;55400;51.824;-0.196;2022-09-09T00:21:36;99282.53;;;15.99;78.47
68145;BME280;55400;51.824;-0.196;2022-09-09T00:26:57;99284.50;;;16.07;78.71
68145;BME280;55400;51.824;-0.196;2022-09-09T00:29:44;99271.75;;;16.00;78.56
68145;BME280;55400;51.824;-0.196;2022-09-09T00:32:16;99280.84;;;16.08;78.42
68145;BME280;55400;51.824;-0.196;2022-09-09T00:35:12;99272.03;;;16.07;78.49
68145;BME280;55400;51.824;-0.196;2022-09-09T00:37:44;99272.72;;;16.09;78.88
68145;BME280;55400;51.824;-0.196;2022-09-09T00:40:24;99269.22;;;16.09;78.85
68145;BME280;55400;51.824;-0.196;2022-09-09T00:43:29;99271.19;;;16.07;78.95
68145;BME280;55400;51.824;-0.196;2022-09-09T00:46:27;99270.19;;;16.08;78.74
68145;BME280;55400;51.824;-0.196;2022-09-09T00:57:41;99269.78;;;16.12;79.07
68145;BME280;55400;51.824;-0.196;2022-09-09T01:00:21;99272.44;;;16.12;78.98
68145;BME280;55400;51.824;-0.196;2022-09-09T01:05:46;99264.19;;;16.15;79.33
68145;BME280;55400;51.824;-0.196;2022-09-09T01:17:09;99266.00;;;16.15;79.06
68145;BME280;55400;51.824;-0.196;2022-09-09T01:22:48;99255.66;;;16.12;79.23
68145;BME280;55400;51.824;-0.196;2022-09-09T01:28:25;99258.31;;;16.12;79.12
68145;BME280;55400;51.824;-0.196;2022-09-09T01:31:01;99259.00;;;16.14;79.46
68145;BME280;55400;51.824;-0.196;2022-09-09T01:33:36;99255.38;;;16.15;79.54
68145;BME280;55400;51.824;-0.196;2022-09-09T01:36:13;99260.00;;;16.13;79.23
68145;BME280;55400;51.824;-0.196;2022-09-09T01:38:46;99253.69;;;16.14;79.66
68145;BME280;55400;51.824;-0.196;2022-09-09T01:41:13;99253.69;;;16.14;79.58
68145;BME280;55400;51.824;-0.196;2022-09-09T01:43:45;99248.38;;;16.14;79.25
68145;BME280;55400;51.824;-0.196;2022-09-09T01:46:16;99252.03;;;16.13;79.67
68145;BME280;55400;51.824;-0.196;2022-09-09T01:48:44;99256.22;;;16.06;79.81
68145;BME280;55400;51.824;-0.196;2022-09-09T01:51:18;99244.34;;;16.10;79.65
68145;BME280;55400;51.824;-0.196;2022-09-09T01:53:53;99247.69;;;16.12;79.50
68145;BME280;55400;51.824;-0.196;2022-09-09T02:04:47;99254.81;;;16.11;79.47
68145;BME280;55400;51.824;-0.196;2022-09-09T02:07:25;99251.44;;;16.09;79.66
68145;BME280;55400;51.824;-0.196;2022-09-09T02:10:11;99251.44;;;16.09;79.56
68145;BME280;55400;51.824;-0.196;2022-09-09T02:13:07;99245.44;;;16.07;79.78
68145;BME280;55400;51.824;-0.196;2022-09-09T02:19:10;99249.06;;;16.06;79.38
68145;BME280;55400;51.824;-0.196;2022-09-09T02:21:43;99245.16;;;16.00;79.46
68145;BME280;55400;51.824;-0.196;2022-09-09T02:24:37;99246.00;;;16.01;79.62
68145;BME280;55400;51.824;-0.196;2022-09-09T02:27:06;99245.03;;;16.02;79.71
68145;BME280;55400;51.824;-0.196;2022-09-09T02:29:42;99246.69;;;16.03;79.28
68145;BME280;55400;51.824;-0.196;2022-09-09T02:32:24;99249.34;;;16.03;79.62
68145;BME280;55400;51.824;-0.196;2022-09-09T02:34:59;99254.66;;;16.03;79.74
68145;BME280;55400;51.824;-0.196;2022-09-09T02:37:34;99251.03;;;16.04;79.65
68145;BME280;55400;51.824;-0.196;2022-09-09T02:40:12;99244.75;;;16.05;79.75
68145;BME280;55400;51.824;-0.196;2022-09-09T02:42:46;99253.56;;;16.06;79.64
68145;BME280;55400;51.824;-0.196;2022-09-09T02:45:20;99247.53;;;16.04;79.48
68145;BME280;55400;51.824;-0.196;2022-09-09T02:49:03;99251.44;;;15.99;79.40
68145;BME280;55400;51.824;-0.196;2022-09-09T02:51:35;99253.28;;;15.99;79.51
68145;BME280;55400;51.824;-0.196;2022-09-09T02:54:28;99248.94;;;15.98;79.71
68145;BME280;55400;51.824;-0.196;2022-09-09T02:57:09;99240.81;;;15.99;79.48
68145;BME280;55400;51.824;-0.196;2022-09-09T02:59:40;99251.31;;;16.01;79.87
68145;BME280;55400;51.824;-0.196;2022-09-09T03:02:08;99254.13;;;15.99;79.70
68145;BME280;55400;51.824;-0.196;2022-09-09T03:04:48;99250.63;;;15.99;79.50
68145;BME280;55400;51.824;-0.196;2022-09-09T03:07:31;99248.66;;;15.91;79.52
68145;BME280;55400;51.824;-0.196;2022-09-09T03:10:01;99266.72;;;15.97;79.92
68145;BME280;55400;51.824;-0.196;2022-09-09T03:12:40;99265.84;;;15.97;79.79
68145;BME280;55400;51.824;-0.196;2022-09-09T03:15:19;99271.31;;;15.95;80.02
68145;BME280;55400;51.824;-0.196;2022-09-09T03:17:48;99266.00;;;15.95;79.53
68145;BME280;55400;51.824;-0.196;2022-09-09T03:20:28;99268.78;;;15.94;79.60
68145;BME280;55400;51.824;-0.196;2022-09-09T03:22:58;99271.31;;;15.95;79.71
68145;BME280;55400;51.824;-0.196;2022-09-09T03:25:34;99272.44;;;15.93;79.66
68145;BME280;55400;51.824;-0.196;2022-09-09T03:28:06;99274.38;;;15.91;80.06
68145;BME280;55400;51.824;-0.196;2022-09-09T03:30:40;99275.53;;;15.88;80.08
68145;BME280;55400;51.824;-0.196;2022-09-09T03:33:13;99272.00;;;15.88;79.81
68145;BME280;55400;51.824;-0.196;2022-09-09T03:35:53;99274.66;;;15.88;79.72
68145;BME280;55400;51.824;-0.196;2022-09-09T03:38:25;99266.69;;;15.88;80.03
68145;BME280;55400;51.824;-0.196;2022-09-09T03:40:59;99278.31;;;15.87;79.53
68145;BME280;55400;51.824;-0.196;2022-09-09T03:43:30;99283.91;;;15.83;79.70
68145;BME280;55400;51.824;-0.196;2022-09-09T03:45:59;99289.91;;;15.86;79.88
68145;BME280;55400;51.824;-0.196;2022-09-09T03:48:29;99282.72;;;15.76;79.64
68145;BME280;55400;51.824;-0.196;2022-09-09T03:50:56;99296.34;;;15.83;79.52
68145;BME280;55400;51.824;-0.196;2022-09-09T03:53:26;99298.31;;;15.81;79.49
68145;BME280;55400;51.824;-0.196;2022-09-09T03:55:57;99302.09;;;15.78;79.72
68145;BME280;55400;51.824;-0.196;2022-09-09T03:58:27;99298.56;;;15.78;79.61
68145;BME280;55400;51.824;-0.196;2022-09-09T04:01:07;99300.66;;;15.74;79.67
68145;BME280;55400;51.824;-0.196;2022-09-09T04:03:45;99302.59;;;15.72;79.83
68145;BME280;55400;51.824;-0.196;2022-09-09T04:06:33;99301.06;;;15.70;79.38
68145;BME280;55400;51.824;-0.196;2022-09-09T04:09:03;99306.50;;;15.68;79.85
68145;BME280;55400;51.824;-0.196;2022-09-09T04:11:33;99301.19;;;15.68;79.83
68145;BME280;55400;51.824;-0.196;2022-09-09T04:14:01;99304.25;;;15.63;79.67
68145;BME280;55400;51.824;-0.196;2022-09-09T04:16:34;99299.78;;;15.64;79.91
68145;BME280;55400;51.824;-0.196;2022-09-09T04:19:05;99313.06;;;15.64;79.60
68145;BME280;55400;51.824;-0.196;2022-09-09T04:21:38;99305.94;;;15.64;80.00
68145;BME280;55400;51.824;-0.196;2022-09-09T04:24:08;99306.91;;;15.63;79.88
68145;BME280;55400;51.824;-0.196;2022-09-09T04:26:37;99310.41;;;15.64;79.54
68145;BME280;55400;51.824;-0.196;2022-09-09T04:29:11;99305.34;;;15.61;79.70
68145;BME280;55400;51.824;-0.196;2022-09-09T04:31:43;99315.28;;;15.59;79.61
68145;BME280;55400;51.824;-0.196;2022-09-09T04:34:09;99314.47;;;15.58;79.71
68145;BME280;55400;51.824;-0.196;2022-09-09T04:36:44;99322.28;;;15.60;79.99
68145;BME280;55400;51.824;-0.196;2022-09-09T04:39:21;99316.13;;;15.59;79.63
68145;BME280;55400;51.824;-0.196;2022-09-09T04:41:55;99308.16;;;15.59;80.14
68145;BME280;55400;51.824;-0.196;2022-09-09T04:44:23;99318.91;;;15.58;79.70
68145;BME280;55400;51.824;-0.196;2022-09-09T04:46:52;99320.59;;;15.59;79.84
68145;BME280;55400;51.824;-0.196;2022-09-09T04:49:22;99322.56;;;15.57;79.79
68145;BME280;55400;51.824;-0.196;2022-09-09T04:51:53;99325.50;;;15.54;79.95
68145;BME280;55400;51.824;-0.196;2022-09-09T04:54:24;99329.09;;;15.53;79.97
68145;BME280;55400;51.824;-0.196;2022-09-09T04:56:54;99330.94;;;15.52;79.95
68145;BME280;55400;51.824;-0.196;2022-09-09T04:59:22;99337.06;;;15.53;79.56
68145;BME280;55400;51.824;-0.196;2022-09-09T05:01:51;99333.59;;;15.52;79.98
68145;BME280;55400;51.824;-0.196;2022-09-09T05:04:20;99327.56;;;15.50;80.12
68145;BME280;55400;51.824;-0.196;2022-09-09T05:06:56;99331.19;;;15.49;79.95
68145;BME280;55400;51.824;-0.196;2022-09-09T05:09:26;99334.69;;;15.50;80.01
68145;BME280;55400;51.824;-0.196;2022-09-09T05:11:54;99336.66;;;15.47;80.14
68145;BME280;55400;51.824;-0.196;2022-09-09T05:14:21;99337.88;;;15.43;79.96
68145;BME280;55400;51.824;-0.196;2022-09-09T05:16:52;99340.41;;;15.45;79.72
68145;BME280;55400;51.824;-0.196;2022-09-09T05:19:21;99344.88;;;15.44;79.96
68145;BME280;55400;51.824;-0.196;2022-09-09T05:21:50;99344.00;;;15.34;80.46
68145;BME280;55400;51.824;-0.196;2022-09-09T05:24:18;99346.13;;;15.40;80.03
68145;BME280;55400;51.824;-0.196;2022-09-09T05:26:46;99347.81;;;15.41;79.57
68145;BME280;55400;51.824;-0.196;2022-09-09T05:29:18;99353.94;;;15.42;80.02
68145;BME280;55400;51.824;-0.196;2022-09-09T05:31:46;99354.66;;;15.44;79.91
68145;BME280;55400;51.824;-0.196;2022-09-09T05:34:19;99350.59;;;15.40;79.63
68145;BME280;55400;51.824;-0.196;2022-09-09T05:37:01;99359.66;;;15.37;79.98
68145;BME280;55400;51.824;-0.196;2022-09-09T05:39:33;99359.94;;;15.34;79.80
68145;BME280;55400;51.824;-0.196;2022-09-09T05:42:09;99358.25;;;15.33;79.75
68145;BME280;55400;51.824;-0.196;2022-09-09T05:44:37;99363.56;;;15.33;79.74
68145;BME280;55400;51.824;-0.196;2022-09-09T05:47:10;99369.03;;;15.32;79.92
68145;BME280;55400;51.824;-0.196;2022-09-09T05:49:42;99370.69;;;15.33;79.83
68145;BME280;55400;51.824;-0.196;2022-09-09T05:52:12;99373.59;;;15.29;79.57
68145;BME280;55400;51.824;-0.196;2022-09-09T05:54:40;99373.03;;;15.26;79.63
68145;BME280;55400;51.824;-0.196;2022-09-09T05:57:16;99375.56;;;15.27;79.65
68145;BME280;55400;51.824;-0.196;2022-09-09T05:59:57;99393.19;;;15.28;79.92
68145;BME280;55400;51.824;-0.196;2022-09-09T06:02:32;99381.00;;;15.26;79.79
68145;BME280;55400;51.824;-0.196;2022-09-09T06:05:09;99385.22;;;15.28;79.74
68145;BME280;55400;51.824;-0.196;2022-09-09T06:07:43;99394.72;;;15.31;79.84
68145;BME280;55400;51.824;-0.196;2022-09-09T06:10:18;99390.53;;;15.28;79.92
68145;BME280;55400;51.824;-0.196;2022-09-09T06:12:52;99388.91;;;15.16;80.42
68145;BME280;55400;51.824;-0.196;2022-09-09T06:15:22;99390.31;;;15.20;79.75
68145;BME280;55400;51.824;-0.196;2022-09-09T06:17:58;99402.91;;;15.18;79.73
68145;BME280;55400;51.824;-0.196;2022-09-09T06:20:38;99392.28;;;15.18;80.09
68145;BME280;55400;51.824;-0.196;2022-09-09T06:23:07;99408.91;;;15.20;79.86
68145;BME280;55400;51.824;-0.196;2022-09-09T06:25:35;99404.34;;;15.22;79.89
68145;BME280;55400;51.824;-0.196;2022-09-09T06:28:05;99415.53;;;15.26;79.84
68145;BME280;55400;51.824;-0.196;2022-09-09T06:30:48;99409.38;;;15.25;79.83
68145;BME280;55400;51.824;-0.196;2022-09-09T06:33:30;99409.63;;;15.22;79.90
68145;BME280;55400;51.824;-0.196;2022-09-09T06:36:03;99415.53;;;15.26;79.83
68145;BME280;55400;51.824;-0.196;2022-09-09T06:38:35;99417.34;;;15.25;79.42
68145;BME280;55400;51.824;-0.196;2022-09-09T06:41:02;99419.00;;;15.26;79.78
68145;BME280;55400;51.824;-0.196;2022-09-09T06:43:38;99424.31;;;15.26;79.88
68145;BME280;55400;51.824;-0.196;2022-09-09T06:46:09;99424.44;;;15.25;80.06
68145;BME280;55400;51.824;-0.196;2022-09-09T06:48:40;99423.50;;;15.26;79.69
68145;BME280;55400;51.824;-0.196;2022-09-09T06:51:17;99430.63;;;15.25;79.64
68145;BME280;55400;51.824;-0.196;2022-09-09T06:53:56;99426.41;;;15.23;79.72
68145;BME280;55400;51.824;-0.196;2022-09-09T06:56:31;99425.72;;;15.21;79.78
68145;BME280;55400;51.824;-0.196;2022-09-09T06:59:02;99430.03;;;15.22;79.93
68145;BME280;55400;51.824;-0.196;2022-09-09T07:01:35;99441.50;;;15.22;79.88
68145;BME280;55400;51.824;-0.196;2022-09-09T07:04:03;99445.25;;;15.20;79.61
68145;BME280;55400;51.824;-0.196;2022-09-09T07:06:47;99452.38;;;15.19;80.01
68145;BME280;55400;51.824;-0.196;2022-09-09T07:09:16;99455.88;;;15.20;79.85
68145;BME280;55400;51.824;-0.196;2022-09-09T07:11:48;99454.31;;;15.17;79.83
68145;BME280;55400;51.824;-0.196;2022-09-09T07:14:18;99450.81;;;15.17;80.16
68145;BME280;55400;51.824;-0.196;2022-09-09T07:16:50;99451.41;;;15.20;80.07
68145;BME280;55400;51.824;-0.196;2022-09-09T07:19:28;99456.31;;;15.25;79.85
68145;BME280;55400;51.824;-0.196;2022-09-09T07:22:11;99461.75;;;15.23;79.79
68145;BME280;55400;51.824;-0.196;2022-09-09T07:24:43;99454.78;;;15.22;79.80
68145;BME280;55400;51.824;-0.196;2022-09-09T07:27:16;99453.41;;;15.28;79.68
68145;BME280;55400;51.824;-0.196;2022-09-09T07:29:46;99450.63;;;15.29;79.60
68145;BME280;55400;51.824;-0.196;2022-09-09T07:32:16;99464.50;;;15.33;79.79
68145;BME280;55400;51.824;-0.196;2022-09-09T07:34:46;99467.84;;;15.35;79.45
68145;BME280;55400;51.824;-0.196;2022-09-09T07:37:18;99473.03;;;15.37;79.76
68145;BME280;55400;51.824;-0.196;2022-09-09T07:39:47;99470.13;;;15.40;79.76
68145;BME280;55400;51.824;-0.196;2022-09-09T07:42:15;99483.97;;;15.43;79.60
68145;BME280;55400;51.824;-0.196;2022-09-09T07:44:43;99491.00;;;15.44;79.62
68145;BME280;55400;51.824;-0.196;2022-09-09T07:47:15;99490.72;;;15.47;79.53
68145;BME280;55400;51.824;-0.196;2022-09-09T07:49:45;99488.06;;;15.47;79.94
68145;BME280;55400;51.824;-0.196;2022-09-09T07:52:15;99495.03;;;15.48;79.53
68145;BME280;55400;51.824;-0.196;2022-09-09T07:54:50;99496.88;;;15.48;79.83
68145;BME280;55400;51.824;-0.196;2022-09-09T07:57:19;99493.13;;;15.51;79.52
68145;BME280;55400;51.824;-0.196;2022-09-09T07:59:50;99498.56;;;15.49;79.89
68145;BME280;55400;51.824;-0.196;2022-09-09T08:02:23;99494.91;;;15.50;79.65
68145;BME280;55400;51.824;-0.196;2022-09-09T08:05:02;99487.06;;;15.48;79.61
68145;BME280;55400;51.824;-0.196;2022-09-09T08:07:34;99509.25;;;15.59;79.63
68145;BME280;55400;51.824;-0.196;2022-09-09T08:10:06;99509.81;;;15.62;79.65
68145;BME280;55400;51.824;-0.196;2022-09-09T08:12:43;99517.78;;;15.62;79.40
68145;BME280;55400;51.824;-0.196;2022-09-09T08:15:31;99519.34;;;15.65;79.21
68145;BME280;55400;51.824;-0.196;2022-09-09T08:18:00;99523.84;;;15.64;79.52
68145;BME280;55400;51.824;-0.196;2022-09-09T08:20:41;99529.41;;;15.61;79.29
68145;BME280;55400;51.824;-0.196;2022-09-09T08:23:12;99533.16;;;15.59;79.54
68145;BME280;55400;51.824;-0.196;2022-09-09T08:25:42;99534.00;;;15.59;79.47
68145;BME280;55400;51.824;-0.196;2022-09-09T08:28:14;99537.03;;;15.55;79.27
68145;BME280;55400;51.824;-0.196;2022-09-09T08:30:41;99537.03;;;15.55;79.27
68145;BME280;55400;51.824;-0.196;2022-09-09T08:33:12;99545.88;;;15.55;79.39
68145;BME280;55400;51.824;-0.196;2022-09-09T08:35:58;99549.22;;;15.57;79.43
68145;BME280;55400;51.824;-0.196;2022-09-09T08:38:30;99557.66;;;15.62;79.03
68145;BME280;55400;51.824;-0.196;2022-09-09T08:41:27;99545.59;;;15.58;79.36
68145;BME280;55400;51.824;-0.196;2022-09-09T08:43:50;99540.47;;;15.66;79.19
68145;BME280;55400;51.824;-0.196;2022-09-09T08:46:47;99549.28;;;15.67;79.00
68145;BME280;55400;51.824;-0.196;2022-09-09T08:49:43;99553.38;;;15.71;79.01
68145;BME280;55400;51.824;-0.196;2022-09-09T08:52:28;99563.19;;;15.71;78.85
68145;BME280;55400;51.824;-0.196;2022-09-09T08:55:12;99567.09;;;15.76;78.61
68145;BME280;55400;51.824;-0.196;2022-09-09T08:57:46;99567.56;;;15.81;78.50
68145;BME280;55400;51.824;-0.196;2022-09-09T09:00:17;99566.75;;;15.81;78.43
68145;BME280;55400;51.824;-0.196;2022-09-09T09:05:39;99578.22;;;15.81;78.05
68145;BME280;55400;51.824;-0.196;2022-09-09T09:10:54;99594.75;;;15.85;77.85
68145;BME280;55400;51.824;-0.196;2022-09-09T09:13:47;99587.75;;;15.84;77.81
68145;BME280;55400;51.824;-0.196;2022-09-09T09:16:39;99600.09;;;15.85;77.81
68145;BME280;55400;51.824;-0.196;2022-09-09T09:19:27;99600.09;;;15.85;77.54
68145;BME280;55400;51.824;-0.196;2022-09-09T09:22:19;99599.94;;;15.87;77.69
68145;BME280;55400;51.824;-0.196;2022-09-09T09:25:11;99611.69;;;15.84;77.89
68145;BME280;55400;51.824;-0.196;2022-09-09T09:27:58;99608.69;;;15.77;77.66
68145;BME280;55400;51.824;-0.196;2022-09-09T09:30:44;99614.94;;;15.76;77.67
68145;BME280;55400;51.824;-0.196;2022-09-09T09:33:32;99621.47;;;15.83;77.64
68145;BME280;55400;51.824;-0.196;2022-09-09T09:36:07;99623.88;;;15.87;77.70
68145;BME280;55400;51.824;-0.196;2022-09-09T09:38:37;99625.28;;;15.91;77.81
68145;BME280;55400;51.824;-0.196;2022-09-09T09:41:40;99628.81;;;15.91;77.64
68145;BME280;55400;51.824;-0.196;2022-09-09T09:44:30;99629.75;;;15.90;77.79
68145;BME280;55400;51.824;-0.196;2022-09-09T09:49:58;99632.34;;;16.01;77.25
68145;BME280;55400;51.824;-0.196;2022-09-09T09:52:32;99638.97;;;16.07;77.44
68145;BME280;55400;51.824;-0.196;2022-09-09T09:55:04;99639.41;;;16.12;77.25
68145;BME280;55400;51.824;-0.196;2022-09-09T09:58:00;99635.66;;;16.15;77.15
68145;BME280;55400;51.824;-0.196;2022-09-09T10:00:28;99639.88;;;16.17;76.70
68145;BME280;55400;51.824;-0.196;2022-09-09T10:02:56;99641.16;;;16.23;77.06
68145;BME280;55400;51.824;-0.196;2022-09-09T10:05:36;99645.38;;;16.26;76.84
68145;BME280;55400;51.824;-0.196;2022-09-09T10:19:22;99645.06;;;16.50;75.55
68145;BME280;55400;51.824;-0.196;2022-09-09T10:22:25;99636.38;;;16.48;75.71
68145;BME280;55400;51.824;-0.196;2022-09-09T10:25:16;99645.78;;;16.52;75.83
68145;BME280;55400;51.824;-0.196;2022-09-09T10:36:56;99656.34;;;16.63;75.84
68145;BME280;55400;51.824;-0.196;2022-09-09T10:39:35;99656.91;;;16.67;75.62
68145;BME280;55400;51.824;-0.196;2022-09-09T10:42:15;99658.72;;;16.66;75.27
68145;BME280;55400;51.824;-0.196;2022-09-09T10:45:23;99663.31;;;16.64;75.10
68145;BME280;55400;51.824;-0.196;2022-09-09T10:51:40;99667.41;;;16.68;75.19
68145;BME280;55400;51.824;-0.196;2022-09-09T10:55:27;99665.44;;;16.70;75.25
68145;BME280;55400;51.824;-0.196;2022-09-09T10:57:58;99668.84;;;16.72;75.21
68145;BME280;55400;51.824;-0.196;2022-09-09T11:00:42;99668.72;;;16.74;74.93
68145;BME280;55400;51.824;-0.196;2022-09-09T11:03:23;99669.69;;;16.73;75.17
68145;BME280;55400;51.824;-0.196;2022-09-09T11:06:04;99669.94;;;16.70;74.90
68145;BME280;55400;51.824;-0.196;2022-09-09T11:08:38;99672.34;;;16.73;74.86
68145;BME280;55400;51.824;-0.196;2022-09-09T11:11:18;99671.38;;;16.74;74.97
68145;BME280;55400;51.824;-0.196;2022-09-09T11:16:53;99673.41;;;16.91;74.88
68145;BME280;55400;51.824;-0.196;2022-09-09T11:19:33;99675.28;;;17.01;74.61
68145;BME280;55400;51.824;-0.196;2022-09-09T11:22:29;99673.03;;;17.06;73.87
68145;BME280;55400;51.824;-0.196;2022-09-09T11:25:01;99686.50;;;17.14;74.61
68145;BME280;55400;51.824;-0.196;2022-09-09T11:27:40;99685.69;;;17.23;73.79
68145;BME280;55400;51.824;-0.196;2022-09-09T11:30:20;99684.84;;;17.33;73.56
68145;BME280;55400;51.824;-0.196;2022-09-09T11:36:22;99683.34;;;17.59;73.08
68145;BME280;55400;51.824;-0.196;2022-09-09T11:44:40;99689.13;;;17.65;72.86
68145;BME280;55400;51.824;-0.196;2022-09-09T11:47:28;99688.13;;;17.66;72.14
68145;BME280;55400;51.824;-0.196;2022-09-09T11:53:17;99695.88;;;17.78;71.84
68145;BME280;55400;51.824;-0.196;2022-09-09T11:55:47;99685.59;;;17.84;71.86
68145;BME280;55400;51.824;-0.196;2022-09-09T11:58:18;99687.13;;;17.86;71.74
68145;BME280;55400;51.824;-0.196;2022-09-09T12:00:49;99679.47;;;17.93;71.07
68145;BME280;55400;51.824;-0.196;2022-09-09T12:06:32;99683.81;;;18.04;69.63
68145;BME280;55400;51.824;-0.196;2022-09-09T12:09:13;99689.69;;;18.07;70.26
68145;BME280;55400;51.824;-0.196;2022-09-09T12:11:46;99688.97;;;18.15;70.02
68145;BME280;55400;51.824;-0.196;2022-09-09T12:14:34;99685.47;;;18.14;68.77
68145;BME280;55400;51.824;-0.196;2022-09-09T12:17:19;99684.47;;;18.15;69.21
68145;BME280;55400;51.824;-0.196;2022-09-09T12:19:47;99687.97;;;18.26;68.64
68145;BME280;55400;51.824;-0.196;2022-09-09T12:25:35;99691.72;;;18.43;67.13
68145;BME280;55400;51.824;-0.196;2022-09-09T12:28:22;99686.63;;;18.49;68.13
68145;BME280;55400;51.824;-0.196;2022-09-09T12:31:12;99690.56;;;18.55;68.38
68145;BME280;55400;51.824;-0.196;2022-09-09T12:33:50;99683.09;;;18.59;68.19
68145;BME280;55400;51.824;-0.196;2022-09-09T12:36:24;99680.97;;;18.62;68.69
68145;BME280;55400;51.824;-0.196;2022-09-09T12:39:10;99685.03;;;18.66;68.72
68145;BME280;55400;51.824;-0.196;2022-09-09T12:41:51;99686.56;;;18.69;68.39
68145;BME280;55400;51.824;-0.196;2022-09-09T12:44:24;99686.97;;;18.74;67.87
68145;BME280;55400;51.824;-0.196;2022-09-09T12:46:54;99689.22;;;18.79;68.26
68145;BME280;55400;51.824;-0.196;2022-09-09T12:49:37;99694.09;;;18.83;67.75
68145;BME280;55400;51.824;-0.196;2022-09-09T12:52:17;99694.69;;;18.87;67.77
68145;BME280;55400;51.824;-0.196;2022-09-09T12:54:48;99698.91;;;18.90;67.96
68145;BME280;55400;51.824;-0.196;2022-09-09T12:57:18;99699.56;;;18.92;67.93
68145;BME280;55400;51.824;-0.196;2022-09-09T12:59:47;99699.00;;;18.98;67.79
68145;BME280;55400;51.824;-0.196;2022-09-09T13:02:22;99693.59;;;19.08;67.74
68145;BME280;55400;51.824;-0.196;2022-09-09T13:04:52;99693.28;;;19.11;67.40
68145;BME280;55400;51.824;-0.196;2022-09-09T13:07:22;99692.59;;;19.09;67.07
68145;BME280;55400;51.824;-0.196;2022-09-09T13:09:53;99699.22;;;19.04;67.04
68145;BME280;55400;51.824;-0.196;2022-09-09T13:12:23;99700.41;;;18.92;67.16
68145;BME280;55400;51.824;-0.196;2022-09-09T13:14:57;99700.16;;;18.85;66.92
68145;BME280;55400;51.824;-0.196;2022-09-09T13:17:28;99700.44;;;18.82;67.11
68145;BME280;55400;51.824;-0.196;2022-09-09T13:19:59;99695.38;;;18.79;66.84
68145;BME280;55400;51.824;-0.196;2022-09-09T13:22:35;99703.97;;;18.73;66.56
68145;BME280;55400;51.824;-0.196;2022-09-09T13:25:29;99715.53;;;18.64;66.58
68145;BME280;55400;51.824;-0.196;2022-09-09T13:28:33;99717.25;;;18.55;66.68
68145;BME280;55400;51.824;-0.196;2022-09-09T13:31:03;99722.59;;;18.45;67.57
68145;BME280;55400;51.824;-0.196;2022-09-09T13:33:36;99719.81;;;18.37;67.81
68145;BME280;55400;51.824;-0.196;2022-09-09T13:36:09;99720.09;;;18.34;67.67
68145;BME280;55400;51.824;-0.196;2022-09-09T13:39:13;99712.25;;;18.32;67.45
68145;BME280;55400;51.824;-0.196;2022-09-09T13:41:47;99715.88;;;18.31;68.27
68145;BME280;55400;51.824;-0.196;2022-09-09T13:44:30;99716.75;;;18.32;68.22
68145;BME280;55400;51.824;-0.196;2022-09-09T13:47:06;99723.06;;;18.31;67.97
68145;BME280;55400;51.824;-0.196;2022-09-09T13:49:51;99724.03;;;18.30;68.56
68145;BME280;55400;51.824;-0.196;2022-09-09T13:52:20;99726.69;;;18.30;68.35
68145;BME280;55400;51.824;-0.196;2022-09-09T13:54:52;99730.66;;;18.26;68.71
68145;BME280;55400;51.824;-0.196;2022-09-09T13:57:22;99732.78;;;18.22;68.50
68145;BME280;55400;51.824;-0.196;2022-09-09T13:59:53;99742.72;;;18.20;68.52
68145;BME280;55400;51.824;-0.196;2022-09-09T14:02:32;99746.84;;;18.14;68.81
68145;BME280;55400;51.824;-0.196;2022-09-09T14:05:04;99743.03;;;18.07;69.10
68145;BME280;55400;51.824;-0.196;2022-09-09T14:07:34;99756.50;;;18.06;68.91
68145;BME280;55400;51.824;-0.196;2022-09-09T14:10:01;99754.69;;;18.06;68.84
68145;BME280;55400;51.824;-0.196;2022-09-09T14:12:30;99764.38;;;18.07;68.97
68145;BME280;55400;51.824;-0.196;2022-09-09T14:15:00;99754.97;;;18.03;68.79
68145;BME280;55400;51.824;-0.196;2022-09-09T14:17:28;99754.97;;;18.03;69.33
68145;BME280;55400;51.824;-0.196;2022-09-09T14:19:58;99753.84;;;18.06;69.35
68145;BME280;55400;51.824;-0.196;2022-09-09T14:22:32;99754.13;;;18.03;69.21
68145;BME280;55400;51.824;-0.196;2022-09-09T14:24:59;99758.75;;;18.01;69.15
68145;BME280;55400;51.824;-0.196;2022-09-09T14:27:27;99760.72;;;17.98;69.30
68145;BME280;55400;51.824;-0.196;2022-09-09T14:29:55;99752.44;;;17.92;69.43
68145;BME280;55400;51.824;-0.196;2022-09-09T14:32:22;99749.88;;;17.80;69.51
68145;BME280;55400;51.824;-0.196;2022-09-09T14:34:56;99758.03;;;17.79;69.52
68145;BME280;55400;51.824;-0.196;2022-09-09T14:37:30;99755.63;;;17.76;69.82
68145;BME280;55400;51.824;-0.196;2022-09-09T14:40:03;99762.78;;;17.75;70.28
68145;BME280;55400;51.824;-0.196;2022-09-09T14:42:31;99763.63;;;17.76;70.24
68145;BME280;55400;51.824;-0.196;2022-09-09T14:45:01;99760.81;;;17.77;69.87
68145;BME280;55400;51.824;-0.196;2022-09-09T14:47:35;99752.00;;;17.77;70.20
68145;BME280;55400;51.824;-0.196;2022-09-09T14:50:18;99758.44;;;17.84;70.19
68145;BME280;55400;51.824;-0.196;2022-09-09T14:52:47;99755.63;;;17.86;70.08
68145;BME280;55400;51.824;-0.196;2022-09-09T14:55:18;99768.16;;;17.95;70.42
68145;BME280;55400;51.824;-0.196;2022-09-09T14:57:46;99769.56;;;17.99;70.64
68145;BME280;55400;51.824;-0.196;2022-09-09T15:00:15;99770.28;;;18.01;70.62
68145;BME280;55400;51.824;-0.196;2022-09-09T15:02:47;99762.81;;;18.05;70.93
68145;BME280;55400;51.824;-0.196;2022-09-09T15:05:19;99763.41;;;18.08;70.76
68145;BME280;55400;51.824;-0.196;2022-09-09T15:07:47;99764.94;;;18.11;71.06
68145;BME280;55400;51.824;-0.196;2022-09-09T15:10:16;99765.78;;;18.11;71.03
68145;BME280;55400;51.824;-0.196;2022-09-09T15:12:45;99767.03;;;18.07;71.01
68145;BME280;55400;51.824;-0.196;2022-09-09T15:15:15;99771.53;;;18.07;71.45
68145;BME280;55400;51.824;-0.196;2022-09-09T15:17:42;99782.22;;;18.07;71.43